createdAt,value
2022-10-17T00:01:12.116Z,100.00
2022-10-17T00:03:40.733Z,100.00
2022-10-17T00:06:15.084Z,100.00
2022-10-17T00:08:44.712Z,100.00
2022-10-17T00:11:23.429Z,100.00
2022-10-17T00:13:55.252Z,100.00
2022-10-17T00:16:33.985Z,100.00
2022-10-17T00:19:02.025Z,100.00
2022-10-17T00:21:30.020Z,100.00
2022-10-17T00:23:59.423Z,100.00
2022-10-17T00:26:29.694Z,100.00
2022-10-17T00:28:58.421Z,100.00
2022-10-17T00:31:26.407Z,100.00
2022-10-17T00:33:54.912Z,100.00
2022-10-17T00:36:26.294Z,100.00
2022-10-17T00:38:56.999Z,100.00
2022-10-17T00:41:30.220Z,100.00
2022-10-17T00:44:02.622Z,100.00
2022-10-17T00:46:34.222Z,100.00
2022-10-17T00:49:12.938Z,100.00
2022-10-17T00:51:49.582Z,100.00
2022-10-17T00:54:23.300Z,100.00
2022-10-17T00:56:52.443Z,100.00
2022-10-17T00:59:22.121Z,100.00
2022-10-17T01:02:14.960Z,100.00
2022-10-17T01:04:46.790Z,100.00
2022-10-17T01:07:15.151Z,100.00
2022-10-17T01:09:45.885Z,100.00
2022-10-17T01:12:36.300Z,100.00
2022-10-17T01:15:17.431Z,100.00
2022-10-17T01:18:29.322Z,100.00
2022-10-17T01:21:15.154Z,100.00
2022-10-17T01:24:27.999Z,100.00
2022-10-17T01:27:36.150Z,100.00
2022-10-17T01:30:09.916Z,100.00
2022-10-17T01:33:03.806Z,100.00
2022-10-17T01:35:45.143Z,100.00
2022-10-17T01:38:44.425Z,100.00
2022-10-17T01:41:33.953Z,100.00
2022-10-17T01:44:20.308Z,100.00
2022-10-17T01:46:54.384Z,100.00
2022-10-17T01:49:27.923Z,100.00
2022-10-17T01:52:12.678Z,100.00
2022-10-17T01:54:50.359Z,100.00
2022-10-17T01:57:33.634Z,100.00
2022-10-17T02:00:06.540Z,100.00
2022-10-17T02:02:44.121Z,100.00
2022-10-17T02:05:12.506Z,100.00
2022-10-17T02:07:42.581Z,100.00
2022-10-17T02:10:26.627Z,100.00
2022-10-17T02:13:20.232Z,100.00
2022-10-17T02:16:20.087Z,100.00
2022-10-17T02:19:11.973Z,100.00
2022-10-17T02:21:56.071Z,100.00
2022-10-17T02:24:59.651Z,100.00
2022-10-17T02:27:48.660Z,100.00
2022-10-17T02:30:53.266Z,100.00
2022-10-17T02:33:37.188Z,100.00
2022-10-17T02:36:22.161Z,100.00
2022-10-17T02:38:52.763Z,100.00
2022-10-17T02:41:22.370Z,100.00
2022-10-17T02:43:55.632Z,100.00
2022-10-17T02:46:28.902Z,100.00
2022-10-17T02:49:22.043Z,100.00
2022-10-17T02:52:06.710Z,100.00
2022-10-17T02:54:48.704Z,100.00
2022-10-17T02:57:25.625Z,100.00
2022-10-17T02:59:55.984Z,100.00
2022-10-17T03:02:25.228Z,100.00
2022-10-17T03:04:53.738Z,100.00
2022-10-17T03:07:21.724Z,100.00
2022-10-17T03:09:49.692Z,100.00
2022-10-17T03:12:17.655Z,100.00
2022-10-17T03:14:45.884Z,100.00
2022-10-17T03:17:13.906Z,100.00
2022-10-17T03:19:42.060Z,100.00
2022-10-17T03:22:10.346Z,100.00
2022-10-17T03:24:39.792Z,100.00
2022-10-17T03:27:08.067Z,100.00
2022-10-17T03:29:38.349Z,100.00
2022-10-17T03:32:08.219Z,100.00
2022-10-17T03:34:37.907Z,100.00
2022-10-17T03:37:05.940Z,100.00
2022-10-17T03:39:36.096Z,100.00
2022-10-17T03:42:04.521Z,100.00
2022-10-17T03:44:32.954Z,100.00
2022-10-17T03:47:00.953Z,100.00
2022-10-17T03:49:28.953Z,100.00
2022-10-17T03:51:57.050Z,100.00
2022-10-17T03:54:26.027Z,100.00
2022-10-17T03:56:54.239Z,100.00
2022-10-17T03:59:22.445Z,100.00
2022-10-17T04:02:00.017Z,100.00
2022-10-17T04:04:29.239Z,100.00
2022-10-17T04:06:57.336Z,100.00
2022-10-17T04:09:25.731Z,100.00
2022-10-17T04:12:02.448Z,100.00
2022-10-17T04:14:32.508Z,100.00
2022-10-17T04:17:00.666Z,100.00
2022-10-17T04:19:30.004Z,100.00
2022-10-17T04:21:58.226Z,100.00
2022-10-17T04:24:29.024Z,100.00
2022-10-17T04:27:20.184Z,100.00
2022-10-17T04:29:48.627Z,100.00
2022-10-17T04:32:24.707Z,100.00
2022-10-17T04:35:15.105Z,100.00
2022-10-17T04:37:47.902Z,100.00
2022-10-17T04:40:21.057Z,100.00
2022-10-17T04:42:49.999Z,100.00
2022-10-17T04:45:21.558Z,100.00
2022-10-17T04:48:10.090Z,100.00
2022-10-17T04:50:38.080Z,100.00
2022-10-17T04:53:27.876Z,100.00
2022-10-17T04:55:56.375Z,100.00
2022-10-17T04:58:24.919Z,100.00
2022-10-17T05:00:53.476Z,100.00
2022-10-17T05:03:24.360Z,100.00
2022-10-17T05:05:52.501Z,100.00
2022-10-17T05:08:20.752Z,100.00
2022-10-17T05:10:48.699Z,100.00
2022-10-17T05:13:16.569Z,100.00
2022-10-17T05:15:44.692Z,100.00
2022-10-17T05:18:13.783Z,100.00
2022-10-17T05:20:43.820Z,100.00
2022-10-17T05:23:12.206Z,100.00
2022-10-17T05:25:44.411Z,100.00
2022-10-17T05:28:12.716Z,100.00
2022-10-17T05:30:43.050Z,100.00
2022-10-17T05:33:11.312Z,100.00
2022-10-17T05:35:39.512Z,100.00
2022-10-17T05:38:07.723Z,100.00
2022-10-17T05:40:41.755Z,100.00
2022-10-17T05:43:09.910Z,100.00
2022-10-17T05:45:41.728Z,100.00
2022-10-17T05:48:14.764Z,100.00
2022-10-17T05:50:42.703Z,100.00
2022-10-17T05:53:17.093Z,100.00
2022-10-17T05:56:00.427Z,100.00
2022-10-17T06:01:43.617Z,100.00
2022-10-17T06:04:12.310Z,100.00
2022-10-17T06:06:41.103Z,100.00
2022-10-17T06:09:10.661Z,100.00
2022-10-17T06:11:42.795Z,100.00
2022-10-17T06:14:11.681Z,100.00
2022-10-17T06:16:41.341Z,100.00
2022-10-17T06:19:11.795Z,100.00
2022-10-17T06:21:40.030Z,100.00
2022-10-17T06:24:13.821Z,100.00
2022-10-17T06:26:43.371Z,100.00
2022-10-17T06:29:14.701Z,100.00
2022-10-17T06:31:52.067Z,100.00
2022-10-17T06:34:22.584Z,100.00
2022-10-17T06:36:50.732Z,100.00
2022-10-17T06:39:20.304Z,100.00
2022-10-17T06:41:59.138Z,100.00
2022-10-17T06:44:44.507Z,100.00
2022-10-17T06:47:38.939Z,100.00
2022-10-17T06:50:21.298Z,100.00
2022-10-17T06:53:00.092Z,100.00
2022-10-17T06:55:46.521Z,100.00
2022-10-17T06:58:30.752Z,100.00
2022-10-17T07:01:13.974Z,100.00
2022-10-17T07:03:44.039Z,100.00
2022-10-17T07:06:13.388Z,100.00
2022-10-17T07:08:44.919Z,100.00
2022-10-17T07:11:19.235Z,100.00
2022-10-17T07:13:49.243Z,100.00
2022-10-17T07:16:17.561Z,100.00
2022-10-17T07:18:52.611Z,100.00
2022-10-17T07:21:21.577Z,100.00
2022-10-17T07:23:49.871Z,100.00
2022-10-17T07:26:19.731Z,100.00
2022-10-17T07:28:53.660Z,100.00
2022-10-17T07:31:31.637Z,100.00
2022-10-17T07:34:04.614Z,100.00
2022-10-17T07:36:32.799Z,100.00
2022-10-17T07:39:03.614Z,100.00
2022-10-17T07:41:33.001Z,100.00
2022-10-17T07:44:02.643Z,100.00
2022-10-17T07:46:35.983Z,100.00
2022-10-17T07:49:04.096Z,100.00
2022-10-17T07:51:32.023Z,100.00
2022-10-17T07:54:00.178Z,100.00
2022-10-17T07:56:29.852Z,100.00
2022-10-17T07:58:58.698Z,100.00
2022-10-17T08:01:28.654Z,100.00
2022-10-17T08:03:56.606Z,100.00
2022-10-17T08:06:24.474Z,100.00
2022-10-17T08:08:52.627Z,100.00
2022-10-17T08:11:21.758Z,100.00
2022-10-17T08:13:49.725Z,100.00
2022-10-17T08:16:17.767Z,100.00
2022-10-17T08:18:45.929Z,100.00
2022-10-17T08:21:13.925Z,100.00
2022-10-17T08:23:42.122Z,100.00
2022-10-17T08:26:15.698Z,100.00
2022-10-17T08:28:44.428Z,100.00
2022-10-17T08:31:19.627Z,100.00
2022-10-17T08:33:49.745Z,100.00
2022-10-17T08:36:20.216Z,100.00
2022-10-17T08:38:52.595Z,100.00
2022-10-17T08:41:35.803Z,100.00
2022-10-17T08:44:38.082Z,100.00
2022-10-17T08:47:16.369Z,100.00
2022-10-17T08:49:51.491Z,100.00
2022-10-17T08:53:12.065Z,100.00
2022-10-17T08:55:52.009Z,100.00
2022-10-17T08:58:34.838Z,100.00
2022-10-17T09:01:36.460Z,98.04
2022-10-17T09:04:38.178Z,98.35
2022-10-17T09:07:42.997Z,98.75
2022-10-17T09:10:58.843Z,96.76
2022-10-17T09:13:54.750Z,97.46
2022-10-17T09:16:37.402Z,96.39
2022-10-17T09:19:21.457Z,96.01
2022-10-17T09:22:06.572Z,96.59
2022-10-17T09:24:48.132Z,96.16
2022-10-17T09:27:48.955Z,93.56
2022-10-17T09:30:45.063Z,93.58
2022-10-17T09:33:42.261Z,93.02
2022-10-17T09:36:22.249Z,93.47
2022-10-17T09:38:59.184Z,91.16
2022-10-17T09:41:50.281Z,91.57
2022-10-17T09:44:30.982Z,90.18
2022-10-17T09:47:24.089Z,90.26
2022-10-17T09:49:52.207Z,90.15
2022-10-17T09:52:36.974Z,89.05
2022-10-17T09:55:18.022Z,89.51
2022-10-17T09:58:03.221Z,88.47
2022-10-17T10:00:37.064Z,88.47
2022-10-17T10:03:26.109Z,87.62
2022-10-17T10:06:21.916Z,87.73
2022-10-17T10:08:55.194Z,87.09
2022-10-17T10:11:44.131Z,86.99
2022-10-17T10:14:20.987Z,86.83
2022-10-17T10:16:50.447Z,87.10
2022-10-17T10:19:29.355Z,86.91
2022-10-17T10:22:28.050Z,85.69
2022-10-17T10:25:11.298Z,84.61
2022-10-17T10:27:42.123Z,84.47
2022-10-17T10:30:30.417Z,84.75
2022-10-17T10:33:00.971Z,84.65
2022-10-17T10:35:38.934Z,82.99
2022-10-17T10:38:18.053Z,83.08
2022-10-17T10:40:51.340Z,82.36
2022-10-17T10:43:41.464Z,81.95
2022-10-17T10:46:31.483Z,81.81
2022-10-17T10:49:03.399Z,81.32
2022-10-17T10:51:49.125Z,81.45
2022-10-17T10:54:26.711Z,80.36
2022-10-17T10:56:59.598Z,80.63
2022-10-17T10:59:56.783Z,81.27
2022-10-17T11:03:18.743Z,78.74
2022-10-17T11:05:56.167Z,78.91
2022-10-17T11:08:35.614Z,79.95
2022-10-17T11:11:24.915Z,79.22
2022-10-17T11:14:42.548Z,79.27
2022-10-17T11:17:23.656Z,79.24
2022-10-17T11:20:34.420Z,78.07
2022-10-17T11:23:21.780Z,78.78
2022-10-17T11:25:54.594Z,79.26
2022-10-17T11:28:24.986Z,80.55
2022-10-17T11:31:27.094Z,78.51
2022-10-17T11:34:01.676Z,79.28
2022-10-17T11:36:38.174Z,79.05
2022-10-17T11:39:10.686Z,79.09
2022-10-17T11:41:53.370Z,80.28
2022-10-17T11:44:40.626Z,80.46
2022-10-17T11:47:27.649Z,79.72
2022-10-17T11:53:08.400Z,79.73
2022-10-17T11:55:40.798Z,77.96
2022-10-17T12:01:36.626Z,78.32
2022-10-17T12:04:17.107Z,77.46
2022-10-17T12:07:19.778Z,76.33
2022-10-17T12:10:08.102Z,77.11
2022-10-17T12:12:38.349Z,75.77
2022-10-17T12:15:23.647Z,76.15
2022-10-17T12:18:03.120Z,76.39
2022-10-17T12:20:37.283Z,75.36
2022-10-17T12:23:11.476Z,75.02
2022-10-17T12:26:04.820Z,74.33
2022-10-17T12:28:46.894Z,74.23
2022-10-17T12:31:33.552Z,74.58
2022-10-17T12:34:08.441Z,73.68
2022-10-17T12:36:38.218Z,74.51
2022-10-17T12:39:11.732Z,73.25
2022-10-17T12:41:40.170Z,73.01
2022-10-17T12:44:15.152Z,73.54
2022-10-17T12:47:11.060Z,73.96
2022-10-17T12:49:53.096Z,74.41
2022-10-17T12:52:34.155Z,73.26
2022-10-17T12:55:11.945Z,73.51
2022-10-17T12:57:49.552Z,73.20
2022-10-17T13:01:11.698Z,72.73
2022-10-17T13:03:44.841Z,72.77
2022-10-17T13:06:25.106Z,72.46
2022-10-17T13:09:05.598Z,73.02
2022-10-17T13:11:36.612Z,72.78
2022-10-17T13:14:14.751Z,72.85
2022-10-17T13:17:06.127Z,73.64
2022-10-17T13:19:46.222Z,73.39
2022-10-17T13:22:23.313Z,74.10
2022-10-17T13:24:53.772Z,73.56
2022-10-17T13:27:39.568Z,74.32
2022-10-17T13:30:31.110Z,75.60
2022-10-17T13:33:03.159Z,75.17
2022-10-17T13:38:32.802Z,75.44
2022-10-17T13:41:30.047Z,76.58
2022-10-17T13:43:52.339Z,76.55
2022-10-17T13:46:39.486Z,78.85
2022-10-17T13:49:40.652Z,77.78
2022-10-17T13:52:22.340Z,78.29
2022-10-17T13:54:53.961Z,78.78
2022-10-17T13:57:26.298Z,80.03
2022-10-17T14:00:00.154Z,80.59
2022-10-17T14:02:31.553Z,79.98
2022-10-17T14:05:20.983Z,79.97
2022-10-17T14:08:13.347Z,79.13
2022-10-17T14:10:44.131Z,79.00
2022-10-17T14:13:25.745Z,79.34
2022-10-17T14:15:55.545Z,80.72
2022-10-17T14:18:37.159Z,81.81
2022-10-17T14:24:28.950Z,82.41
2022-10-17T14:26:59.919Z,82.90
2022-10-17T14:29:51.306Z,82.59
2022-10-17T14:32:20.485Z,82.73
2022-10-17T14:35:05.620Z,83.05
2022-10-17T14:37:49.058Z,84.38
2022-10-17T14:40:23.858Z,85.21
2022-10-17T14:42:59.425Z,84.71
2022-10-17T14:45:38.818Z,85.77
2022-10-17T14:48:17.892Z,86.22
2022-10-17T14:51:10.931Z,86.18
2022-10-17T14:53:40.199Z,86.83
2022-10-17T14:56:35.981Z,87.30
2022-10-17T14:59:07.580Z,88.18
2022-10-17T15:01:39.507Z,88.86
2022-10-17T15:04:10.986Z,89.33
2022-10-17T15:06:41.041Z,89.99
2022-10-17T15:09:11.673Z,91.06
2022-10-17T15:11:40.051Z,92.22
2022-10-17T15:14:08.437Z,92.77
2022-10-17T15:16:37.332Z,93.33
2022-10-17T15:19:05.419Z,94.23
2022-10-17T15:21:40.495Z,95.07
2022-10-17T15:24:11.388Z,96.08
2022-10-17T15:26:39.593Z,96.61
2022-10-17T15:29:07.687Z,97.56
2022-10-17T15:31:36.123Z,99.02
2022-10-17T15:34:04.041Z,100.00
2022-10-17T15:36:40.830Z,100.00
2022-10-17T15:39:11.113Z,100.00
2022-10-17T15:41:39.194Z,100.00
2022-10-17T15:44:07.538Z,100.00
2022-10-17T15:46:36.623Z,100.00
2022-10-17T15:49:17.959Z,100.00
2022-10-17T15:51:49.332Z,100.00
2022-10-17T15:54:18.708Z,100.00
2022-10-17T15:56:55.377Z,100.00
2022-10-17T15:59:31.031Z,100.00
2022-10-17T16:01:59.390Z,100.00
2022-10-17T16:04:29.299Z,100.00
2022-10-17T16:06:57.214Z,100.00
2022-10-17T16:09:25.320Z,100.00
2022-10-17T16:11:53.363Z,100.00
2022-10-17T16:14:21.311Z,100.00
2022-10-17T16:16:49.302Z,100.00
2022-10-17T16:19:17.391Z,100.00
2022-10-17T16:21:45.597Z,100.00
2022-10-17T16:24:13.991Z,100.00
2022-10-17T16:26:42.721Z,100.00
2022-10-17T16:29:10.752Z,100.00
2022-10-17T16:31:45.031Z,100.00
2022-10-17T16:34:16.027Z,100.00
2022-10-17T16:36:44.087Z,100.00
2022-10-17T16:39:12.322Z,100.00
2022-10-17T16:41:40.553Z,100.00
2022-10-17T16:44:13.596Z,100.00
2022-10-17T16:46:42.004Z,100.00
2022-10-17T16:49:10.907Z,100.00
2022-10-17T16:51:39.273Z,100.00
2022-10-17T16:54:07.322Z,100.00
2022-10-17T16:56:38.433Z,100.00
2022-10-17T16:59:06.635Z,100.00
2022-10-17T17:01:34.795Z,100.00
2022-10-17T17:04:04.736Z,100.00
2022-10-17T17:06:32.978Z,100.00
2022-10-17T17:09:01.216Z,100.00
2022-10-17T17:11:29.424Z,100.00
2022-10-17T17:13:59.477Z,100.00
2022-10-17T17:16:30.109Z,100.00
2022-10-17T17:19:18.662Z,100.00
2022-10-17T17:21:52.769Z,100.00
2022-10-17T17:24:21.884Z,100.00
2022-10-17T17:26:55.781Z,100.00
2022-10-17T17:29:28.203Z,100.00
2022-10-17T17:31:56.244Z,100.00
2022-10-17T17:34:24.384Z,100.00
2022-10-17T17:36:55.454Z,100.00
2022-10-17T17:39:27.151Z,100.00
2022-10-17T17:41:55.819Z,100.00
2022-10-17T17:44:24.421Z,100.00
2022-10-17T17:46:52.506Z,100.00
2022-10-17T17:49:22.044Z,100.00
2022-10-17T17:51:50.143Z,100.00
2022-10-17T17:54:18.133Z,100.00
2022-10-17T17:56:46.224Z,100.00
2022-10-17T17:59:14.894Z,100.00
2022-10-17T18:01:44.240Z,100.00
2022-10-17T18:04:12.636Z,100.00
2022-10-17T18:06:44.271Z,100.00
2022-10-17T18:09:12.612Z,100.00
2022-10-17T18:11:40.952Z,100.00
2022-10-17T18:14:14.066Z,100.00
2022-10-17T18:16:42.728Z,100.00
2022-10-17T18:19:29.248Z,100.00
2022-10-17T18:21:57.383Z,100.00
2022-10-17T18:24:30.247Z,100.00
2022-10-17T18:27:01.291Z,100.00
2022-10-17T18:29:31.538Z,100.00
2022-10-17T18:32:01.285Z,100.00
2022-10-17T18:34:30.098Z,100.00
2022-10-17T18:37:00.411Z,100.00
2022-10-17T18:39:29.634Z,100.00
2022-10-17T18:41:58.178Z,100.00
2022-10-17T18:44:27.144Z,100.00
2022-10-17T18:46:59.867Z,100.00
2022-10-17T18:49:31.268Z,100.00
2022-10-17T18:52:00.075Z,100.00
2022-10-17T18:54:29.516Z,100.00
2022-10-17T18:56:57.723Z,100.00
2022-10-17T18:59:26.254Z,100.00
2022-10-17T19:01:57.504Z,100.00
2022-10-17T19:04:27.030Z,100.00
2022-10-17T19:06:55.310Z,100.00
2022-10-17T19:09:23.436Z,100.00
2022-10-17T19:11:51.960Z,100.00
2022-10-17T19:14:20.425Z,100.00
2022-10-17T19:16:51.166Z,100.00
2022-10-17T19:19:21.230Z,100.00
2022-10-17T19:21:49.732Z,100.00
2022-10-17T19:24:25.363Z,100.00
2022-10-17T19:26:57.925Z,100.00
2022-10-17T19:29:28.514Z,100.00
2022-10-17T19:31:56.868Z,100.00
2022-10-17T19:34:25.262Z,100.00
2022-10-17T19:36:54.253Z,100.00
2022-10-17T19:39:38.409Z,100.00
2022-10-17T19:42:09.109Z,100.00
2022-10-17T19:44:46.092Z,100.00
2022-10-17T19:47:17.960Z,100.00
2022-10-17T19:49:49.904Z,100.00
2022-10-17T19:52:18.499Z,100.00
2022-10-17T19:54:47.028Z,100.00
2022-10-17T19:57:15.634Z,100.00
2022-10-17T19:59:43.897Z,100.00
2022-10-17T20:02:14.956Z,100.00
2022-10-17T20:04:54.395Z,100.00
2022-10-17T20:07:31.336Z,100.00
2022-10-17T20:09:59.417Z,100.00
2022-10-17T20:12:27.605Z,100.00
2022-10-17T20:14:55.777Z,100.00
2022-10-17T20:17:23.970Z,100.00
2022-10-17T20:19:52.357Z,100.00
2022-10-17T20:22:20.599Z,100.00
2022-10-17T20:24:48.658Z,100.00
2022-10-17T20:27:16.716Z,100.00
2022-10-17T20:29:45.048Z,100.00
2022-10-17T20:32:12.997Z,100.00
2022-10-17T20:34:41.967Z,100.00
2022-10-17T20:37:10.097Z,100.00
2022-10-17T20:39:38.340Z,100.00
2022-10-17T20:42:06.411Z,100.00
2022-10-17T20:44:34.828Z,100.00
2022-10-17T20:47:04.559Z,100.00
2022-10-17T20:49:34.582Z,100.00
2022-10-17T20:52:02.996Z,100.00
2022-10-17T20:54:31.626Z,100.00
2022-10-17T20:57:02.603Z,100.00
2022-10-17T20:59:37.508Z,100.00
2022-10-17T21:02:18.632Z,100.00
2022-10-17T21:04:48.575Z,100.00
2022-10-17T21:07:16.619Z,100.00
2022-10-17T21:10:12.158Z,100.00
2022-10-17T21:12:54.056Z,100.00
2022-10-17T21:15:23.070Z,100.00
2022-10-17T21:17:51.062Z,100.00
2022-10-17T21:20:19.067Z,100.00
2022-10-17T21:22:47.067Z,100.00
2022-10-17T21:25:15.949Z,100.00
2022-10-17T21:27:43.848Z,100.00
2022-10-17T21:30:12.133Z,100.00
2022-10-17T21:32:55.290Z,100.00
2022-10-17T21:35:23.783Z,100.00
2022-10-17T21:37:51.888Z,100.00
2022-10-17T21:40:19.932Z,100.00
2022-10-17T21:42:47.904Z,100.00
2022-10-17T21:45:25.102Z,100.00
2022-10-17T21:48:18.083Z,100.00
2022-10-17T21:50:41.793Z,100.00
2022-10-17T21:53:10.027Z,100.00
2022-10-17T21:55:38.419Z,100.00
2022-10-17T21:58:06.484Z,100.00
2022-10-17T22:00:34.618Z,100.00
2022-10-17T22:03:02.816Z,100.00
2022-10-17T22:05:31.632Z,100.00
2022-10-17T22:07:59.654Z,100.00
2022-10-17T22:10:27.875Z,100.00
2022-10-17T22:12:58.370Z,100.00
2022-10-17T22:15:26.565Z,100.00
2022-10-17T22:17:54.497Z,100.00
2022-10-17T22:20:22.454Z,100.00
2022-10-17T22:22:50.572Z,100.00
2022-10-17T22:25:18.474Z,100.00
2022-10-17T22:27:47.502Z,100.00
2022-10-17T22:30:15.983Z,100.00
2022-10-17T22:32:44.272Z,100.00
2022-10-17T22:35:12.564Z,100.00
2022-10-17T22:37:40.619Z,100.00
2022-10-17T22:40:09.271Z,100.00
2022-10-17T22:42:37.304Z,100.00
2022-10-17T22:45:05.875Z,100.00
2022-10-17T22:47:33.873Z,100.00
2022-10-17T22:50:01.806Z,100.00
2022-10-17T22:52:30.305Z,100.00
2022-10-17T22:54:58.689Z,100.00
2022-10-17T22:57:26.585Z,100.00
2022-10-17T22:59:54.527Z,100.00
2022-10-17T23:02:22.559Z,100.00
2022-10-17T23:04:50.430Z,100.00
2022-10-17T23:07:18.607Z,100.00
2022-10-17T23:09:46.573Z,100.00
2022-10-17T23:12:17.542Z,100.00
2022-10-17T23:14:45.714Z,100.00
2022-10-17T23:17:14.592Z,100.00
2022-10-17T23:19:42.559Z,100.00
2022-10-17T23:22:10.673Z,100.00
2022-10-17T23:24:38.559Z,100.00
2022-10-17T23:27:06.473Z,100.00
2022-10-17T23:29:35.251Z,100.00
2022-10-17T23:32:03.604Z,100.00
2022-10-17T23:34:31.650Z,100.00
2022-10-17T23:36:59.675Z,100.00
2022-10-17T23:39:27.508Z,100.00
2022-10-17T23:41:55.341Z,100.00
2022-10-17T23:44:23.788Z,100.00
2022-10-17T23:46:51.737Z,100.00
2022-10-17T23:49:19.543Z,100.00
2022-10-17T23:51:47.826Z,100.00
2022-10-17T23:54:15.788Z,100.00
2022-10-17T23:56:43.666Z,100.00
2022-10-17T23:59:11.727Z,100.00
